createdAt,value
2019-04-06T00:02:11.184Z,94923.59
2019-04-06T00:04:38.544Z,94926.30
2019-04-06T00:07:05.911Z,94930.49
2019-04-06T00:09:33.211Z,94924.16
2019-04-06T00:12:00.267Z,94917.56
2019-04-06T00:14:29.203Z,94916.94
2019-04-06T00:16:56.529Z,94912.92
2019-04-06T00:19:23.564Z,94907.28
2019-04-06T00:21:50.862Z,94908.93
2019-04-06T00:24:17.902Z,94905.24
2019-04-06T00:26:45.198Z,94909.11
2019-04-06T00:29:12.228Z,94895.73
2019-04-06T00:31:39.277Z,94895.88
2019-04-06T00:34:07.725Z,94894.56
2019-04-06T00:36:35.026Z,94896.00
2019-04-06T00:39:02.417Z,94896.30
2019-04-06T00:41:30.542Z,94895.82
2019-04-06T00:43:57.845Z,94900.17
2019-04-06T00:46:24.883Z,94897.59
2019-04-06T00:48:51.939Z,94894.38
2019-04-06T00:51:19.363Z,94893.57
2019-04-06T00:53:47.679Z,94893.24
2019-04-06T00:56:14.722Z,94885.32
2019-04-06T00:58:41.768Z,94884.18
2019-04-06T01:01:08.800Z,94878.36
2019-04-06T01:03:35.970Z,94881.78
2019-04-06T01:06:03.238Z,94883.88
2019-04-06T01:08:30.963Z,94884.00
2019-04-06T01:10:58.010Z,94889.27
2019-04-06T01:13:25.064Z,94884.71
2019-04-06T01:15:52.378Z,94885.45
2019-04-06T01:18:19.423Z,94890.80
2019-04-06T01:20:47.678Z,94885.16
2019-04-06T01:23:14.989Z,94884.83
2019-04-06T01:25:42.276Z,94884.31
2019-04-06T01:28:09.572Z,94878.75
2019-04-06T01:30:36.869Z,94881.77
2019-04-06T01:33:04.238Z,94871.91
2019-04-06T01:35:31.280Z,94879.78
2019-04-06T01:37:58.590Z,94879.93
2019-04-06T01:40:25.699Z,94881.22
2019-04-06T01:42:53.074Z,94884.46
2019-04-06T01:45:20.129Z,94879.41
2019-04-06T01:47:47.462Z,94880.06
2019-04-06T01:50:14.815Z,94887.63
2019-04-06T01:52:42.201Z,94895.04
2019-04-06T01:55:09.176Z,94883.17
2019-04-06T01:57:36.230Z,94894.38
2019-04-06T02:00:03.514Z,94886.65
2019-04-06T02:02:31.886Z,94886.14
2019-04-06T02:05:00.331Z,94883.83
2019-04-06T02:07:27.621Z,94885.06
2019-04-06T02:09:54.922Z,94885.40
2019-04-06T02:12:22.331Z,94888.79
2019-04-06T02:14:49.603Z,94889.67
2019-04-06T02:17:16.639Z,94891.16
2019-04-06T02:19:43.775Z,94886.05
2019-04-06T02:22:11.065Z,94886.92
2019-04-06T02:24:38.122Z,94884.38
2019-04-06T02:27:05.394Z,94878.09
2019-04-06T02:29:32.711Z,94882.49
2019-04-06T02:31:59.867Z,94872.86
2019-04-06T02:34:27.273Z,94875.97
2019-04-06T02:36:54.265Z,94868.75
2019-04-06T02:39:21.612Z,94869.27
2019-04-06T02:41:48.946Z,94863.16
2019-04-06T02:44:16.279Z,94857.52
2019-04-06T02:46:43.663Z,94855.11
2019-04-06T02:49:10.961Z,94849.47
2019-04-06T02:51:38.351Z,94846.86
2019-04-06T02:54:05.554Z,94842.20
2019-04-06T02:56:45.078Z,94837.33
2019-04-06T02:59:01.639Z,94838.12
2019-04-06T03:01:28.753Z,94845.19
2019-04-06T03:03:55.840Z,94847.72
2019-04-06T03:06:23.144Z,94854.09
2019-04-06T03:08:50.563Z,94853.80
2019-04-06T03:11:17.820Z,94857.69
2019-04-06T03:13:45.201Z,94859.56
2019-04-06T03:16:12.257Z,94858.78
2019-04-06T03:18:39.586Z,94862.88
2019-04-06T03:21:07.078Z,94859.93
2019-04-06T03:23:49.172Z,94865.09
2019-04-06T03:26:03.247Z,94870.97
2019-04-06T03:28:30.271Z,94870.45
2019-04-06T03:30:58.992Z,94868.70
2019-04-06T03:33:26.068Z,94868.05
2019-04-06T03:35:53.399Z,94871.22
2019-04-06T03:38:20.596Z,94867.22
2019-04-06T03:40:47.618Z,94864.16
2019-04-06T03:43:14.671Z,94866.15
2019-04-06T03:45:41.960Z,94862.39
2019-04-06T03:48:09.279Z,94861.06
2019-04-06T03:50:36.634Z,94868.94
2019-04-06T03:53:03.806Z,94875.33
2019-04-06T03:55:30.813Z,94871.23
2019-04-06T03:57:57.859Z,94874.73
2019-04-06T04:00:25.234Z,94873.25
2019-04-06T04:02:53.721Z,94868.39
2019-04-06T04:05:20.736Z,94872.63
2019-04-06T04:07:48.150Z,94871.67
2019-04-06T04:10:15.473Z,94873.58
2019-04-06T04:12:42.527Z,94867.62
2019-04-06T04:15:09.586Z,94865.09
2019-04-06T04:17:36.633Z,94864.84
2019-04-06T04:20:03.795Z,94865.07
2019-04-06T04:22:34.477Z,94865.30
2019-04-06T04:25:00.520Z,94859.41
2019-04-06T04:27:30.183Z,94856.58
2019-04-06T04:29:56.589Z,94858.97
2019-04-06T04:32:23.940Z,94855.84
2019-04-06T04:34:51.278Z,94858.48
2019-04-06T04:37:18.736Z,94869.38
2019-04-06T04:39:46.020Z,94868.58
2019-04-06T04:42:13.079Z,94872.06
2019-04-06T04:44:40.116Z,94878.17
2019-04-06T04:47:07.231Z,94882.41
2019-04-06T04:49:34.485Z,94879.11
2019-04-06T04:52:01.538Z,94881.30
2019-04-06T04:54:28.887Z,94878.03
2019-04-06T04:56:56.317Z,94875.87
2019-04-06T04:59:23.720Z,94880.45
2019-04-06T05:01:51.042Z,94877.94
2019-04-06T05:04:19.363Z,94881.52
2019-04-06T05:06:46.911Z,94882.98
2019-04-06T05:09:14.310Z,94887.59
2019-04-06T05:11:41.625Z,94892.63
2019-04-06T05:14:08.672Z,94893.47
2019-04-06T05:16:35.809Z,94892.91
2019-04-06T05:19:03.281Z,94892.94
2019-04-06T05:21:30.615Z,94896.55
2019-04-06T05:23:57.666Z,94893.84
2019-04-06T05:26:24.725Z,94897.95
2019-04-06T05:28:52.080Z,94904.27
2019-04-06T05:31:19.128Z,94905.27
2019-04-06T05:33:46.168Z,94903.72
2019-04-06T05:36:14.376Z,94899.56
2019-04-06T05:38:41.687Z,94908.01
2019-04-06T05:41:09.044Z,94900.66
2019-04-06T05:43:36.398Z,94902.79
2019-04-06T05:46:03.776Z,94905.56
2019-04-06T05:48:31.114Z,94905.09
2019-04-06T05:50:58.469Z,94909.44
2019-04-06T05:53:25.823Z,94906.90
2019-04-06T05:55:52.875Z,94907.89
2019-04-06T05:58:20.243Z,94908.41
2019-04-06T06:00:47.285Z,94911.68
2019-04-06T06:03:15.542Z,94910.23
2019-04-06T06:05:42.666Z,94906.70
2019-04-06T06:08:10.297Z,94914.14
2019-04-06T06:10:38.609Z,94918.84
2019-04-06T06:13:06.279Z,94917.38
2019-04-06T06:15:33.310Z,94925.93
2019-04-06T06:18:00.888Z,94929.81
2019-04-06T06:20:28.267Z,94918.00
2019-04-06T06:22:55.765Z,94923.66
2019-04-06T06:25:23.202Z,94920.91
2019-04-06T06:27:50.260Z,94923.98
2019-04-06T06:30:17.804Z,94927.86
2019-04-06T06:32:44.931Z,94928.02
2019-04-06T06:35:11.984Z,94930.13
2019-04-06T06:37:39.339Z,94922.85
2019-04-06T06:40:06.383Z,94920.59
2019-04-06T06:42:33.441Z,94917.99
2019-04-06T06:45:00.484Z,94922.03
2019-04-06T06:47:27.856Z,94919.44
2019-04-06T06:49:54.905Z,94917.81
2019-04-06T06:52:22.240Z,94919.10
2019-04-06T06:54:49.279Z,94919.55
2019-04-06T06:57:16.647Z,94924.53
2019-04-06T06:59:44.015Z,94920.78
2019-04-06T07:02:11.077Z,94918.65
2019-04-06T07:04:38.127Z,94918.77
2019-04-06T07:07:05.196Z,94923.00
2019-04-06T07:09:32.236Z,94923.80
2019-04-06T07:11:59.298Z,94920.16
2019-04-06T07:14:26.596Z,94920.43
2019-04-06T07:16:53.655Z,94925.71
2019-04-06T07:19:21.018Z,94925.20
2019-04-06T07:21:48.366Z,94916.66
2019-04-06T07:24:15.708Z,94919.02
2019-04-06T07:26:43.105Z,94918.27
2019-04-06T07:29:10.143Z,94920.75
2019-04-06T07:31:37.483Z,94924.52
2019-04-06T07:34:04.837Z,94921.19
2019-04-06T07:36:32.272Z,94918.91
2019-04-06T07:38:59.632Z,94918.73
2019-04-06T07:41:26.987Z,94928.08
2019-04-06T07:43:54.559Z,94922.45
2019-04-06T07:46:22.058Z,94923.25
2019-04-06T07:48:49.372Z,94928.05
2019-04-06T07:51:16.418Z,94931.20
2019-04-06T07:53:43.531Z,94920.76
2019-04-06T07:56:10.572Z,94924.21
2019-04-06T07:58:47.842Z,94927.48
2019-04-06T08:01:07.056Z,94924.57
2019-04-06T08:03:34.367Z,94923.85
2019-04-06T08:06:01.422Z,94920.14
2019-04-06T08:08:29.070Z,94918.92
2019-04-06T08:10:56.699Z,94921.56
2019-04-06T08:13:23.753Z,94920.70
2019-04-06T08:15:50.797Z,94918.18
2019-04-06T08:18:18.240Z,94915.22
2019-04-06T08:20:45.246Z,94913.62
2019-04-06T08:23:12.304Z,94911.41
2019-04-06T08:25:39.350Z,94908.53
2019-04-06T08:28:06.401Z,94913.13
2019-04-06T08:30:50.109Z,94915.31
2019-04-06T08:33:17.522Z,94914.14
2019-04-06T08:35:44.824Z,94907.69
2019-04-06T08:38:12.147Z,94905.15
2019-04-06T08:40:39.484Z,94908.31
2019-04-06T08:43:06.840Z,94904.27
2019-04-06T08:45:34.211Z,94906.20
2019-04-06T08:48:01.675Z,94910.41
2019-04-06T08:50:28.716Z,94902.70
2019-04-06T08:52:56.076Z,94901.17
2019-04-06T08:55:23.411Z,94907.91
2019-04-06T08:57:51.220Z,94907.73
2019-04-06T09:00:18.248Z,94905.12
2019-04-06T09:02:45.291Z,94908.15
2019-04-06T09:05:12.629Z,94915.24
2019-04-06T09:07:40.941Z,94909.55
2019-04-06T09:10:08.601Z,94915.41
2019-04-06T09:12:35.920Z,94910.80
2019-04-06T09:15:03.256Z,94904.39
2019-04-06T09:17:30.288Z,94902.55
2019-04-06T09:19:57.743Z,94900.03
2019-04-06T09:22:25.346Z,94886.52
2019-04-06T09:24:53.560Z,94895.83
2019-04-06T09:27:20.613Z,94894.10
2019-04-06T09:29:47.674Z,94887.09
2019-04-06T09:32:15.090Z,94881.13
2019-04-06T09:34:42.428Z,94880.08
2019-04-06T09:37:09.799Z,94877.63
2019-04-06T09:39:37.257Z,94868.41
2019-04-06T09:42:04.838Z,94862.65
2019-04-06T09:44:31.851Z,94862.89
2019-04-06T09:47:00.345Z,94862.52
2019-04-06T09:49:27.483Z,94859.48
2019-04-06T09:51:54.528Z,94855.71
2019-04-06T09:54:21.858Z,94856.22
2019-04-06T09:56:49.109Z,94857.89
2019-04-06T09:59:17.617Z,94853.42
2019-04-06T10:01:44.818Z,94851.44
2019-04-06T10:04:12.128Z,94851.78
2019-04-06T10:06:39.684Z,94847.32
2019-04-06T10:09:07.485Z,94837.14
2019-04-06T10:11:34.815Z,94821.16
2019-04-06T10:14:02.179Z,94828.66
2019-04-06T10:16:29.508Z,94833.06
2019-04-06T10:18:56.641Z,94831.05
2019-04-06T10:21:23.694Z,94833.05
2019-04-06T10:23:51.066Z,94833.34
2019-04-06T10:26:19.195Z,94832.14
2019-04-06T10:28:46.486Z,94820.59
2019-04-06T10:31:13.862Z,94827.23
2019-04-06T10:33:40.891Z,94816.70
2019-04-06T10:36:08.247Z,94814.62
2019-04-06T10:38:35.602Z,94812.14
2019-04-06T10:41:02.958Z,94814.16
2019-04-06T10:43:30.391Z,94807.28
2019-04-06T10:45:57.688Z,94807.86
2019-04-06T10:48:25.024Z,94808.70
2019-04-06T10:50:52.844Z,94811.87
2019-04-06T10:53:19.903Z,94806.53
2019-04-06T10:55:47.304Z,94806.64
2019-04-06T10:58:15.778Z,94797.80
2019-04-06T11:00:44.564Z,94801.78
2019-04-06T11:03:11.967Z,94794.94
2019-04-06T11:05:39.278Z,94794.13
2019-04-06T11:08:06.630Z,94790.41
2019-04-06T11:10:33.959Z,94796.31
2019-04-06T11:13:01.347Z,94794.24
2019-04-06T11:15:28.480Z,94794.91
2019-04-06T11:17:55.550Z,94796.80
2019-04-06T11:20:22.584Z,94784.70
2019-04-06T11:22:49.945Z,94780.70
2019-04-06T11:25:17.389Z,94780.48
2019-04-06T11:27:45.635Z,94775.95
2019-04-06T11:30:14.842Z,94771.13
2019-04-06T11:32:42.288Z,94772.09
2019-04-06T11:35:09.353Z,94770.05
2019-04-06T11:37:36.413Z,94770.84
2019-04-06T11:40:04.429Z,94762.53
2019-04-06T11:42:31.754Z,94769.39
2019-04-06T11:44:58.802Z,94768.67
2019-04-06T11:47:26.931Z,94766.10
2019-04-06T11:49:54.553Z,94764.16
2019-04-06T11:52:21.670Z,94777.39
2019-04-06T11:54:49.041Z,94775.36
2019-04-06T11:57:16.110Z,94776.08
2019-04-06T11:59:43.611Z,94779.48
2019-04-06T12:02:11.000Z,94777.30
2019-04-06T12:04:38.039Z,94775.75
2019-04-06T12:07:05.407Z,94780.41
2019-04-06T12:09:32.729Z,94768.53
2019-04-06T12:12:00.031Z,94769.99
2019-04-06T12:14:27.383Z,94768.56
2019-04-06T12:16:54.733Z,94768.77
2019-04-06T12:19:22.101Z,94768.42
2019-04-06T12:21:49.156Z,94766.10
2019-04-06T12:24:16.776Z,94766.53
2019-04-06T12:26:44.176Z,94765.23
2019-04-06T12:29:11.338Z,94760.34
2019-04-06T12:31:38.754Z,94764.49
2019-04-06T12:34:06.107Z,94768.74
2019-04-06T12:36:33.256Z,94758.53
2019-04-06T12:39:00.639Z,94764.63
2019-04-06T12:41:29.349Z,94762.45
2019-04-06T12:43:56.757Z,94763.30
2019-04-06T12:46:24.212Z,94755.13
2019-04-06T12:48:52.740Z,94764.44
2019-04-06T12:51:20.497Z,94765.91
2019-04-06T12:53:48.835Z,94760.98
2019-04-06T12:56:16.302Z,94758.20
2019-04-06T12:58:43.422Z,94762.76
2019-04-06T13:01:10.930Z,94771.58
2019-04-06T13:03:38.191Z,94762.16
2019-04-06T13:06:05.633Z,94760.05
2019-04-06T13:08:32.969Z,94758.16
2019-04-06T13:11:00.326Z,94756.66
2019-04-06T13:13:27.696Z,94757.31
2019-04-06T13:15:54.757Z,94750.93
2019-04-06T13:18:21.804Z,94744.22
2019-04-06T13:20:48.848Z,94737.35
2019-04-06T13:23:16.182Z,94736.00
2019-04-06T13:25:43.531Z,94740.50
2019-04-06T13:28:10.802Z,94738.37
2019-04-06T13:30:38.517Z,94733.09
2019-04-06T13:33:05.876Z,94731.08
2019-04-06T13:35:32.905Z,94733.91
2019-04-06T13:38:00.515Z,94728.30
2019-04-06T13:40:28.810Z,94728.97
2019-04-06T13:42:56.145Z,94727.89
2019-04-06T13:45:23.500Z,94727.85
2019-04-06T13:47:51.586Z,94723.42
2019-04-06T13:50:18.951Z,94725.86
2019-04-06T13:52:46.010Z,94723.48
2019-04-06T13:55:13.297Z,94726.55
2019-04-06T13:57:40.683Z,94718.36
2019-04-06T14:00:08.041Z,94713.36
2019-04-06T14:02:35.275Z,94720.94
2019-04-06T14:05:02.874Z,94717.03
2019-04-06T14:07:29.877Z,94714.06
2019-04-06T14:09:57.260Z,94707.17
2019-04-06T14:12:24.388Z,94711.73
2019-04-06T14:14:51.766Z,94714.34
2019-04-06T14:17:19.117Z,94708.38
2019-04-06T14:19:46.471Z,94700.18
2019-04-06T14:22:13.832Z,94700.75
2019-04-06T14:24:41.201Z,94699.95
2019-04-06T14:27:08.662Z,94697.84
2019-04-06T14:29:36.048Z,94690.63
2019-04-06T14:32:03.900Z,94688.94
2019-04-06T14:34:31.008Z,94686.92
2019-04-06T14:36:58.306Z,94694.09
2019-04-06T14:39:25.459Z,94698.17
2019-04-06T14:41:53.307Z,94696.78
2019-04-06T14:44:20.612Z,94698.80
2019-04-06T14:46:48.131Z,94692.55
2019-04-06T14:49:28.859Z,94689.55
2019-04-06T14:51:43.928Z,94699.11
2019-04-06T14:54:11.542Z,94691.98
2019-04-06T14:56:38.951Z,94695.34
2019-04-06T14:59:06.016Z,94691.77
2019-04-06T15:01:41.189Z,94696.75
2019-04-06T15:04:02.469Z,94687.10
2019-04-06T15:06:29.511Z,94691.98
2019-04-06T15:08:56.852Z,94692.70
2019-04-06T15:11:24.182Z,94693.08
2019-04-06T15:13:51.700Z,94684.88
2019-04-06T15:16:19.125Z,94679.95
2019-04-06T15:18:46.377Z,94681.89
2019-04-06T15:21:13.487Z,94686.55
2019-04-06T15:23:41.005Z,94680.28
2019-04-06T15:26:08.456Z,94684.70
2019-04-06T15:28:35.505Z,94676.71
2019-04-06T15:31:02.638Z,94665.75
2019-04-06T15:33:29.995Z,94669.75
2019-04-06T15:35:57.349Z,94666.95
2019-04-06T15:38:24.644Z,94663.87
2019-04-06T15:40:51.862Z,94671.77
2019-04-06T15:43:19.793Z,94665.64
2019-04-06T15:45:47.177Z,94668.27
2019-04-06T15:48:14.533Z,94669.54
2019-04-06T15:50:41.886Z,94673.72
2019-04-06T15:53:08.939Z,94665.44
2019-04-06T15:55:36.084Z,94659.75
2019-04-06T15:58:03.130Z,94656.42
2019-04-06T16:00:30.594Z,94656.33
2019-04-06T16:02:57.849Z,94655.80
2019-04-06T16:05:24.866Z,94649.17
2019-04-06T16:07:51.924Z,94651.77
2019-04-06T16:10:18.988Z,94646.77
2019-04-06T16:12:47.109Z,94657.59
2019-04-06T16:15:14.182Z,94650.91
2019-04-06T16:17:41.565Z,94651.24
2019-04-06T16:20:09.729Z,94653.45
2019-04-06T16:22:37.246Z,94649.69
2019-04-06T16:25:04.627Z,94657.08
2019-04-06T16:27:31.932Z,94659.70
2019-04-06T16:29:59.280Z,94657.83
2019-04-06T16:32:32.424Z,94662.06
2019-04-06T16:34:55.409Z,94655.05
2019-04-06T16:37:22.765Z,94653.34
2019-04-06T16:39:50.115Z,94657.19
2019-04-06T16:42:17.176Z,94661.33
2019-04-06T16:44:44.228Z,94659.05
2019-04-06T16:47:11.569Z,94660.16
2019-04-06T16:49:38.925Z,94661.00
2019-04-06T16:52:05.999Z,94660.53
2019-04-06T16:54:33.325Z,94661.05
2019-04-06T16:57:00.683Z,94666.08
2019-04-06T16:59:27.808Z,94670.37
2019-04-06T17:01:54.927Z,94669.88
2019-04-06T17:04:22.356Z,94669.12
2019-04-06T17:06:49.852Z,94672.77
2019-04-06T17:09:17.054Z,94674.41
2019-04-06T17:11:44.379Z,94672.90
2019-04-06T17:14:11.681Z,94672.16
2019-04-06T17:16:39.007Z,94675.11
2019-04-06T17:19:20.633Z,94669.24
2019-04-06T17:21:48.260Z,94669.77
2019-04-06T17:24:16.761Z,94669.08
2019-04-06T17:26:44.543Z,94670.19
2019-04-06T17:29:13.835Z,94670.05
2019-04-06T17:31:43.995Z,94670.28
2019-04-06T17:34:10.895Z,94670.80
2019-04-06T17:36:41.967Z,94670.87
2019-04-06T17:39:16.819Z,94667.23
2019-04-06T17:41:44.422Z,94666.45
2019-04-06T17:44:18.551Z,94668.20
2019-04-06T17:46:46.233Z,94670.97
2019-04-06T17:49:29.615Z,94674.89
2019-04-06T17:54:33.508Z,94671.81
2019-04-06T17:57:00.838Z,94670.70
2019-04-06T17:59:31.283Z,94667.63
2019-04-06T18:07:25.421Z,94668.11
2019-04-06T18:09:56.666Z,94665.28
2019-04-06T18:12:24.649Z,94672.78
2019-04-06T18:14:52.975Z,94671.34
2019-04-06T18:17:20.230Z,94670.00
2019-04-06T18:19:57.282Z,94668.73
2019-04-06T18:22:26.776Z,94670.75
2019-04-06T18:25:04.172Z,94676.57
2019-04-06T18:27:34.440Z,94679.58
2019-04-06T18:30:01.669Z,94682.28
2019-04-06T18:32:34.812Z,94688.23
2019-04-06T18:35:05.086Z,94684.03
2019-04-06T18:37:33.639Z,94689.14
2019-04-06T18:40:01.845Z,94696.37
2019-04-06T18:42:29.682Z,94696.08
2019-04-06T18:44:57.340Z,94706.75
2019-04-06T18:47:24.527Z,94704.25
2019-04-06T18:49:52.379Z,94708.53
2019-04-06T18:52:20.229Z,94710.37
2019-04-06T18:57:32.362Z,94712.39
2019-04-06T19:00:00.828Z,94709.56
2019-04-06T19:02:28.475Z,94720.63
2019-04-06T19:04:55.843Z,94715.09
2019-04-06T19:07:25.071Z,94717.50
2019-04-06T19:09:52.339Z,94718.46
2019-04-06T19:12:19.974Z,94717.24
2019-04-06T19:19:53.838Z,94720.78
2019-04-06T19:22:22.110Z,94730.48
2019-04-06T19:24:51.320Z,94724.38
2019-04-06T19:27:18.559Z,94730.17
2019-04-06T19:29:49.365Z,94727.28
2019-04-06T19:32:33.133Z,94728.31
2019-04-06T19:42:57.341Z,94730.46
2019-04-06T19:45:24.963Z,94729.02
2019-04-06T19:47:54.131Z,94730.80
2019-04-06T19:50:23.345Z,94723.58
2019-04-06T19:52:57.921Z,94725.06
2019-04-06T19:55:25.553Z,94721.64
2019-04-06T19:57:57.216Z,94719.69
2019-04-06T20:02:59.478Z,94723.52
2019-04-06T20:05:29.672Z,94723.91
2019-04-06T20:07:57.853Z,94722.52
2019-04-06T20:10:25.139Z,94728.55
2019-04-06T20:12:52.427Z,94728.55
2019-04-06T20:15:24.407Z,94724.36
2019-04-06T20:17:54.017Z,94724.05
2019-04-06T20:25:38.135Z,94721.30
2019-04-06T20:30:58.083Z,94716.52
2019-04-06T20:33:30.502Z,94714.78
2019-04-06T20:35:57.744Z,94719.77
2019-04-06T20:38:26.157Z,94715.97
2019-04-06T20:40:53.877Z,94713.93
2019-04-06T20:43:22.064Z,94719.09
2019-04-06T20:45:49.335Z,94717.60
2019-04-06T20:48:25.748Z,94719.09
2019-04-06T20:50:52.813Z,94712.67
2019-04-06T20:53:22.643Z,94715.88
2019-04-06T20:58:26.887Z,94710.47
2019-04-06T21:00:54.519Z,94709.77
2019-04-06T21:03:23.298Z,94705.16
2019-04-06T21:05:52.822Z,94702.05
2019-04-06T21:08:27.195Z,94701.35
2019-04-06T21:10:58.013Z,94702.15
2019-04-06T21:13:25.435Z,94697.33
2019-04-06T21:15:53.636Z,94695.41
2019-04-06T21:18:24.372Z,94692.00
2019-04-06T21:28:58.339Z,94710.73
2019-04-06T21:31:25.561Z,94705.02
2019-04-06T21:36:38.005Z,94701.22
2019-04-06T21:47:16.744Z,94708.71
2019-04-06T21:49:45.988Z,94702.22
2019-04-06T21:52:13.026Z,94702.12
2019-04-06T21:54:40.973Z,94703.00
2019-04-06T21:57:20.030Z,94703.98
2019-04-06T21:59:47.345Z,94701.22
2019-04-06T22:02:14.811Z,94707.02
2019-04-06T22:04:41.936Z,94706.05
2019-04-06T22:07:09.831Z,94702.56
2019-04-06T22:09:37.007Z,94708.20
2019-04-06T22:12:04.051Z,94702.61
2019-04-06T22:14:31.641Z,94703.06
2019-04-06T22:16:59.312Z,94703.94
2019-04-06T22:19:27.782Z,94711.94
2019-04-06T22:21:55.409Z,94709.83
2019-04-06T22:24:22.509Z,94711.80
2019-04-06T22:26:49.683Z,94707.02
2019-04-06T22:29:17.344Z,94705.90
2019-04-06T22:31:44.922Z,94705.96
2019-04-06T22:34:12.571Z,94712.28
2019-04-06T22:36:40.182Z,94711.83
2019-04-06T22:39:07.478Z,94714.10
2019-04-06T22:41:35.405Z,94708.58
2019-04-06T22:44:03.022Z,94709.10
2019-04-06T22:46:31.570Z,94707.36
2019-04-06T22:48:58.967Z,94707.31
2019-04-06T22:51:26.502Z,94704.99
2019-04-06T22:53:53.537Z,94707.21
2019-04-06T22:56:21.429Z,94702.33
2019-04-06T22:58:49.343Z,94700.23
2019-04-06T23:01:16.656Z,94703.80
2019-04-06T23:03:45.013Z,94701.60
2019-04-06T23:06:12.306Z,94706.64
2019-04-06T23:08:39.618Z,94708.88
2019-04-06T23:11:06.937Z,94707.03
2019-04-06T23:13:34.533Z,94700.99
2019-04-06T23:16:02.091Z,94705.20
2019-04-06T23:18:29.368Z,94699.26
2019-04-06T23:20:56.567Z,94702.00
2019-04-06T23:23:23.624Z,94694.56
2019-04-06T23:25:50.922Z,94696.93
2019-04-06T23:28:18.210Z,94694.91
2019-04-06T23:30:45.351Z,94688.32
2019-04-06T23:33:12.378Z,94689.95
2019-04-06T23:35:39.705Z,94682.36
2019-04-06T23:38:07.465Z,94688.80
2019-04-06T23:40:34.836Z,94685.33
2019-04-06T23:43:02.116Z,94689.05
2019-04-06T23:45:30.001Z,94691.33
2019-04-06T23:47:57.293Z,94685.48
2019-04-06T23:50:24.591Z,94689.41
2019-04-06T23:52:51.637Z,94694.88
2019-04-06T23:55:18.979Z,94694.38
2019-04-06T23:57:46.562Z,94689.84
